Terminal Aerodrome Forecast
Issued by NWS

Home | Current Version | Previous Version | Text Only | Print | Product List | Glossary On
Versions: 1 2 3 4 5 6 7 8 9 10 11 12 13 14 15
000
FTUS42 TJSJ 041740
TAFNCM
TAF
TNCM 041740Z 0418/0518 09019KT P6SM SCT020
      TEMPO 0418/0420 BKN020
     FM050400 09012KT P6SM FEW018=

USA.gov is the U.S. government's official web portal to all federal, state and local government web resources and services.